sensor_id;sensor_type;location;lat;lon;timestamp;pressure;altitude;pressure_sealevel;temperature;humidity
65190;BME280;51777;53.570;9.984;2023-02-26T00:02:21;101406.59;;;-0.26;100.00
65190;BME280;51777;53.570;9.984;2023-02-26T00:04:47;101412.56;;;-0.27;100.00
65190;BME280;51777;53.570;9.984;2023-02-26T00:07:12;101410.00;;;-0.27;100.00
65190;BME280;51777;53.570;9.984;2023-02-26T00:09:37;101416.81;;;-0.28;100.00
65190;BME280;51777;53.570;9.984;2023-02-26T00:12:03;101421.00;;;-0.27;100.00
65190;BME280;51777;53.570;9.984;2023-02-26T00:14:29;101422.66;;;-0.26;100.00
65190;BME280;51777;53.570;9.984;2023-02-26T00:19:55;101432.88;;;-0.27;100.00
65190;BME280;51777;53.570;9.984;2023-02-26T00:22:21;101443.09;;;-0.29;100.00
65190;BME280;51777;53.570;9.984;2023-02-26T00:24:47;101443.16;;;-0.31;100.00
65190;BME280;51777;53.570;9.984;2023-02-26T00:27:12;101443.22;;;-0.32;100.00
65190;BME280;51777;53.570;9.984;2023-02-26T00:29:38;101453.34;;;-0.31;100.00
65190;BME280;51777;53.570;9.984;2023-02-26T00:32:04;101463.56;;;-0.32;100.00
65190;BME280;51777;53.570;9.984;2023-02-26T00:34:30;101458.53;;;-0.34;100.00
65190;BME280;51777;53.570;9.984;2023-02-26T00:42:12;101469.53;;;-0.33;100.00
65190;BME280;51777;53.570;9.984;2023-02-26T00:44:39;101472.97;;;-0.34;100.00
65190;BME280;51777;53.570;9.984;2023-02-26T00:47:28;101473.00;;;-0.36;100.00
65190;BME280;51777;53.570;9.984;2023-02-26T00:50:19;101485.66;;;-0.34;100.00
65190;BME280;51777;53.570;9.984;2023-02-26T00:55:38;101497.59;;;-0.36;100.00
65190;BME280;51777;53.570;9.984;2023-02-26T00:58:04;101502.72;;;-0.38;100.00
65190;BME280;51777;53.570;9.984;2023-02-26T01:00:30;101507.75;;;-0.36;100.00
65190;BME280;51777;53.570;9.984;2023-02-26T01:02:56;101499.31;;;-0.37;100.00
65190;BME280;51777;53.570;9.984;2023-02-26T01:05:21;101508.66;;;-0.37;100.00
65190;BME280;51777;53.570;9.984;2023-02-26T01:10:45;101515.06;;;-0.28;100.00
65190;BME280;51777;53.570;9.984;2023-02-26T01:13:11;101518.09;;;-0.19;100.00
65190;BME280;51777;53.570;9.984;2023-02-26T01:15:37;101524.63;;;-0.12;100.00
65190;BME280;51777;53.570;9.984;2023-02-26T01:18:23;101530.22;;;-0.04;100.00
65190;BME280;51777;53.570;9.984;2023-02-26T01:20:55;101530.00;;;0.03;100.00
65190;BME280;51777;53.570;9.984;2023-02-26T01:23:26;101540.00;;;0.07;100.00
65190;BME280;51777;53.570;9.984;2023-02-26T01:26:27;101536.63;;;0.07;100.00
65190;BME280;51777;53.570;9.984;2023-02-26T01:28:53;101530.53;;;0.11;100.00
65190;BME280;51777;53.570;9.984;2023-02-26T01:33:51;101520.06;;;0.18;100.00
65190;BME280;51777;53.570;9.984;2023-02-26T01:36:20;101531.69;;;0.25;100.00
65190;BME280;51777;53.570;9.984;2023-02-26T01:38:57;101532.38;;;0.29;100.00
65190;BME280;51777;53.570;9.984;2023-02-26T01:44:17;101539.03;;;0.32;100.00
65190;BME280;51777;53.570;9.984;2023-02-26T01:47:12;101540.63;;;0.34;100.00
65190;BME280;51777;53.570;9.984;2023-02-26T01:49:40;101536.31;;;0.36;100.00
65190;BME280;51777;53.570;9.984;2023-02-26T01:54:52;101545.72;;;0.34;100.00
65190;BME280;51777;53.570;9.984;2023-02-26T01:57:18;101556.91;;;0.30;100.00
65190;BME280;51777;53.570;9.984;2023-02-26T01:59:48;101559.47;;;0.30;100.00
65190;BME280;51777;53.570;9.984;2023-02-26T02:02:21;101562.13;;;0.27;100.00
65190;BME280;51777;53.570;9.984;2023-02-26T02:04:49;101558.81;;;0.25;100.00
65190;BME280;51777;53.570;9.984;2023-02-26T02:07:16;101554.72;;;0.21;100.00
65190;BME280;51777;53.570;9.984;2023-02-26T02:09:41;101563.38;;;0.17;100.00
65190;BME280;51777;53.570;9.984;2023-02-26T02:12:34;101567.78;;;0.12;100.00
65190;BME280;51777;53.570;9.984;2023-02-26T02:26:18;101583.34;;;-0.19;100.00
65190;BME280;51777;53.570;9.984;2023-02-26T02:31:51;101592.91;;;-0.26;100.00
65190;BME280;51777;53.570;9.984;2023-02-26T02:36:54;101601.53;;;-0.30;100.00
65190;BME280;51777;53.570;9.984;2023-02-26T02:39:27;101599.94;;;-0.33;100.00
65190;BME280;51777;53.570;9.984;2023-02-26T02:42:06;101605.94;;;-0.35;100.00
65190;BME280;51777;53.570;9.984;2023-02-26T02:44:37;101611.03;;;-0.35;100.00
65190;BME280;51777;53.570;9.984;2023-02-26T02:47:05;101614.53;;;-0.39;100.00
65190;BME280;51777;53.570;9.984;2023-02-26T02:49:45;101622.22;;;-0.41;100.00
65190;BME280;51777;53.570;9.984;2023-02-26T02:52:24;101617.31;;;-0.45;100.00
65190;BME280;51777;53.570;9.984;2023-02-26T02:54:57;101620.78;;;-0.48;100.00
65190;BME280;51777;53.570;9.984;2023-02-26T02:58:03;101620.84;;;-0.49;100.00
65190;BME280;51777;53.570;9.984;2023-02-26T03:00:32;101632.03;;;-0.55;100.00
65190;BME280;51777;53.570;9.984;2023-02-26T03:03:14;101629.50;;;-0.55;100.00
65190;BME280;51777;53.570;9.984;2023-02-26T03:05:41;101637.16;;;-0.56;100.00
65190;BME280;51777;53.570;9.984;2023-02-26T03:08:28;101639.81;;;-0.60;100.00
65190;BME280;51777;53.570;9.984;2023-02-26T03:10:55;101638.94;;;-0.58;100.00
65190;BME280;51777;53.570;9.984;2023-02-26T03:13:23;101644.97;;;-0.61;100.00
65190;BME280;51777;53.570;9.984;2023-02-26T03:19:22;101649.22;;;-0.62;100.00
65190;BME280;51777;53.570;9.984;2023-02-26T03:22:04;101647.50;;;-0.61;100.00
65190;BME280;51777;53.570;9.984;2023-02-26T03:24:54;101650.88;;;-0.61;100.00
65190;BME280;51777;53.570;9.984;2023-02-26T03:27:34;101654.31;;;-0.63;100.00
65190;BME280;51777;53.570;9.984;2023-02-26T03:30:05;101656.91;;;-0.65;100.00
65190;BME280;51777;53.570;9.984;2023-02-26T03:32:50;101662.88;;;-0.66;100.00
65190;BME280;51777;53.570;9.984;2023-02-26T03:35:28;101668.81;;;-0.67;100.00
65190;BME280;51777;53.570;9.984;2023-02-26T03:38:00;101672.25;;;-0.68;100.00
65190;BME280;51777;53.570;9.984;2023-02-26T03:40:32;101679.09;;;-0.70;100.00
65190;BME280;51777;53.570;9.984;2023-02-26T03:43:06;101680.84;;;-0.72;100.00
65190;BME280;51777;53.570;9.984;2023-02-26T03:45:34;101684.28;;;-0.73;100.00
65190;BME280;51777;53.570;9.984;2023-02-26T03:48:04;101679.28;;;-0.76;100.00
65190;BME280;51777;53.570;9.984;2023-02-26T03:53:00;101692.03;;;-0.77;100.00
65190;BME280;51777;53.570;9.984;2023-02-26T03:55:38;101696.28;;;-0.78;100.00
65190;BME280;51777;53.570;9.984;2023-02-26T03:58:05;101694.69;;;-0.80;100.00
65190;BME280;51777;53.570;9.984;2023-02-26T04:00:32;101693.06;;;-0.83;100.00
65190;BME280;51777;53.570;9.984;2023-02-26T04:03:08;101698.97;;;-0.82;100.00
65190;BME280;51777;53.570;9.984;2023-02-26T04:05:38;101706.66;;;-0.84;100.00
65190;BME280;51777;53.570;9.984;2023-02-26T04:08:05;101713.38;;;-0.83;100.00
65190;BME280;51777;53.570;9.984;2023-02-26T04:10:46;101713.44;;;-0.84;100.00
65190;BME280;51777;53.570;9.984;2023-02-26T04:13:15;101717.69;;;-0.85;100.00
65190;BME280;51777;53.570;9.984;2023-02-26T04:15:41;101729.56;;;-0.87;100.00
65190;BME280;51777;53.570;9.984;2023-02-26T04:18:06;101727.03;;;-0.87;100.00
65190;BME280;51777;53.570;9.984;2023-02-26T04:20:31;101734.66;;;-0.87;100.00
65190;BME280;51777;53.570;9.984;2023-02-26T04:22:57;101749.09;;;-0.89;100.00
65190;BME280;51777;53.570;9.984;2023-02-26T04:25:22;101731.38;;;-0.91;100.00
65190;BME280;51777;53.570;9.984;2023-02-26T04:27:48;101747.50;;;-0.92;100.00
65190;BME280;51777;53.570;9.984;2023-02-26T04:30:13;101740.81;;;-0.94;100.00
65190;BME280;51777;53.570;9.984;2023-02-26T04:32:39;101751.88;;;-0.97;100.00
65190;BME280;51777;53.570;9.984;2023-02-26T04:35:04;101742.66;;;-0.99;100.00
65190;BME280;51777;53.570;9.984;2023-02-26T04:37:30;101749.41;;;-1.00;100.00
65190;BME280;51777;53.570;9.984;2023-02-26T04:39:55;101748.63;;;-1.02;100.00
65190;BME280;51777;53.570;9.984;2023-02-26T04:42:21;101760.56;;;-1.04;100.00
65190;BME280;51777;53.570;9.984;2023-02-26T04:44:46;101758.00;;;-1.04;100.00
65190;BME280;51777;53.570;9.984;2023-02-26T04:47:12;101766.47;;;-1.03;100.00
65190;BME280;51777;53.570;9.984;2023-02-26T04:49:37;101762.25;;;-1.04;100.00
65190;BME280;51777;53.570;9.984;2023-02-26T04:52:03;101759.72;;;-1.04;100.00
65190;BME280;51777;53.570;9.984;2023-02-26T04:54:28;101769.03;;;-1.05;100.00
65190;BME280;51777;53.570;9.984;2023-02-26T04:56:54;101762.31;;;-1.06;100.00
65190;BME280;51777;53.570;9.984;2023-02-26T04:59:19;101779.19;;;-1.05;100.00
65190;BME280;51777;53.570;9.984;2023-02-26T05:01:45;101775.81;;;-1.05;100.00
65190;BME280;51777;53.570;9.984;2023-02-26T05:04:10;101789.41;;;-1.06;100.00
65190;BME280;51777;53.570;9.984;2023-02-26T05:06:36;101791.94;;;-1.06;100.00
65190;BME280;51777;53.570;9.984;2023-02-26T05:09:02;101795.44;;;-1.10;100.00
65190;BME280;51777;53.570;9.984;2023-02-26T05:11:27;101803.06;;;-1.12;100.00
65190;BME280;51777;53.570;9.984;2023-02-26T05:13:53;101800.59;;;-1.13;100.00
65190;BME280;51777;53.570;9.984;2023-02-26T05:16:18;101804.84;;;-1.14;100.00
65190;BME280;51777;53.570;9.984;2023-02-26T05:18:44;101807.41;;;-1.15;100.00
65190;BME280;51777;53.570;9.984;2023-02-26T05:21:10;101812.50;;;-1.15;100.00
65190;BME280;51777;53.570;9.984;2023-02-26T05:23:36;101816.69;;;-1.14;100.00
65190;BME280;51777;53.570;9.984;2023-02-26T05:26:01;101819.31;;;-1.17;100.00
65190;BME280;51777;53.570;9.984;2023-02-26T05:28:27;101817.63;;;-1.17;100.00
65190;BME280;51777;53.570;9.984;2023-02-26T05:30:55;101824.34;;;-1.16;100.00
65190;BME280;51777;53.570;9.984;2023-02-26T05:33:20;101824.44;;;-1.19;100.00
65190;BME280;51777;53.570;9.984;2023-02-26T05:35:46;101828.69;;;-1.20;100.00
65190;BME280;51777;53.570;9.984;2023-02-26T05:38:12;101832.94;;;-1.20;100.00
65190;BME280;51777;53.570;9.984;2023-02-26T05:40:38;101832.97;;;-1.22;100.00
65190;BME280;51777;53.570;9.984;2023-02-26T05:43:03;101838.13;;;-1.25;100.00
65190;BME280;51777;53.570;9.984;2023-02-26T05:45:28;101836.47;;;-1.26;100.00
65190;BME280;51777;53.570;9.984;2023-02-26T05:47:54;101833.13;;;-1.28;100.00
65190;BME280;51777;53.570;9.984;2023-02-26T05:50:20;101839.97;;;-1.30;100.00
65190;BME280;51777;53.570;9.984;2023-02-26T05:52:45;101848.44;;;-1.31;100.00
65190;BME280;51777;53.570;9.984;2023-02-26T05:55:11;101851.03;;;-1.32;100.00
65190;BME280;51777;53.570;9.984;2023-02-26T05:57:36;101859.47;;;-1.32;100.00
65190;BME280;51777;53.570;9.984;2023-02-26T06:00:03;101855.28;;;-1.33;100.00
65190;BME280;51777;53.570;9.984;2023-02-26T06:02:29;101864.66;;;-1.35;100.00
65190;BME280;51777;53.570;9.984;2023-02-26T06:04:54;101861.34;;;-1.38;100.00
65190;BME280;51777;53.570;9.984;2023-02-26T06:07:20;101869.88;;;-1.41;100.00
65190;BME280;51777;53.570;9.984;2023-02-26T06:09:45;101871.56;;;-1.41;100.00
65190;BME280;51777;53.570;9.984;2023-02-26T06:12:11;101869.88;;;-1.41;100.00
65190;BME280;51777;53.570;9.984;2023-02-26T06:14:36;101869.00;;;-1.40;100.00
65190;BME280;51777;53.570;9.984;2023-02-26T06:17:03;101884.16;;;-1.38;100.00
65190;BME280;51777;53.570;9.984;2023-02-26T06:19:28;101884.22;;;-1.40;100.00
65190;BME280;51777;53.570;9.984;2023-02-26T06:21:54;101891.78;;;-1.38;100.00
65190;BME280;51777;53.570;9.984;2023-02-26T06:24:19;101891.03;;;-1.42;100.00
65190;BME280;51777;53.570;9.984;2023-02-26T06:26:45;101895.19;;;-1.39;100.00
65190;BME280;51777;53.570;9.984;2023-02-26T06:29:10;101895.13;;;-1.38;100.00
65190;BME280;51777;53.570;9.984;2023-02-26T06:31:36;101898.59;;;-1.40;100.00
65190;BME280;51777;53.570;9.984;2023-02-26T06:34:01;101902.78;;;-1.39;100.00
65190;BME280;51777;53.570;9.984;2023-02-26T06:36:27;101918.88;;;-1.40;100.00
65190;BME280;51777;53.570;9.984;2023-02-26T06:38:53;101917.13;;;-1.38;100.00
65190;BME280;51777;53.570;9.984;2023-02-26T06:41:18;101919.63;;;-1.37;100.00
65190;BME280;51777;53.570;9.984;2023-02-26T06:43:43;101920.50;;;-1.36;100.00
65190;BME280;51777;53.570;9.984;2023-02-26T06:46:09;101925.47;;;-1.33;100.00
65190;BME280;51777;53.570;9.984;2023-02-26T06:48:34;101929.53;;;-1.28;100.00
65190;BME280;51777;53.570;9.984;2023-02-26T06:51:00;101929.16;;;-0.53;100.00
65190;BME280;51777;53.570;9.984;2023-02-26T06:53:25;101944.69;;;2.07;100.00
65190;BME280;51777;53.570;9.984;2023-02-26T06:55:51;101955.22;;;4.47;100.00
65190;BME280;51777;53.570;9.984;2023-02-26T06:58:17;101968.34;;;5.40;100.00
65190;BME280;51777;53.570;9.984;2023-02-26T07:00:43;101959.19;;;3.65;100.00
65190;BME280;51777;53.570;9.984;2023-02-26T07:03:14;101964.81;;;3.71;100.00
65190;BME280;51777;53.570;9.984;2023-02-26T07:05:41;101966.31;;;5.14;100.00
65190;BME280;51777;53.570;9.984;2023-02-26T07:08:07;101972.66;;;4.04;100.00
65190;BME280;51777;53.570;9.984;2023-02-26T07:10:33;101975.91;;;2.95;100.00
65190;BME280;51777;53.570;9.984;2023-02-26T07:13:00;101974.72;;;2.43;100.00
65190;BME280;51777;53.570;9.984;2023-02-26T07:15:25;101976.19;;;2.06;100.00
65190;BME280;51777;53.570;9.984;2023-02-26T07:17:51;101978.09;;;1.79;100.00
65190;BME280;51777;53.570;9.984;2023-02-26T07:20:17;101982.75;;;1.46;100.00
65190;BME280;51777;53.570;9.984;2023-02-26T07:22:43;101984.06;;;1.33;100.00
65190;BME280;51777;53.570;9.984;2023-02-26T07:25:09;101988.38;;;1.07;100.00
65190;BME280;51777;53.570;9.984;2023-02-26T07:27:36;101989.13;;;0.86;100.00
65190;BME280;51777;53.570;9.984;2023-02-26T07:30:02;101997.97;;;0.76;100.00
65190;BME280;51777;53.570;9.984;2023-02-26T07:32:29;101987.50;;;0.58;100.00
65190;BME280;51777;53.570;9.984;2023-02-26T07:34:54;101989.44;;;0.52;100.00
65190;BME280;51777;53.570;9.984;2023-02-26T07:37:19;101993.16;;;0.42;100.00
65190;BME280;51777;53.570;9.984;2023-02-26T07:39:45;101997.56;;;0.63;100.00
65190;BME280;51777;53.570;9.984;2023-02-26T07:42:10;102000.28;;;1.07;100.00
65190;BME280;51777;53.570;9.984;2023-02-26T07:44:36;102004.34;;;1.59;100.00
65190;BME280;51777;53.570;9.984;2023-02-26T07:47:02;102000.50;;;1.71;100.00
65190;BME280;51777;53.570;9.984;2023-02-26T07:49:27;101995.97;;;1.32;100.00
65190;BME280;51777;53.570;9.984;2023-02-26T07:51:53;102005.19;;;2.68;100.00
65190;BME280;51777;53.570;9.984;2023-02-26T07:54:19;102008.06;;;3.95;100.00
65190;BME280;51777;53.570;9.984;2023-02-26T07:56:45;102017.19;;;4.54;100.00
65190;BME280;51777;53.570;9.984;2023-02-26T07:59:11;102037.41;;;8.23;100.00
65190;BME280;51777;53.570;9.984;2023-02-26T08:01:36;102044.50;;;9.61;100.00
65190;BME280;51777;53.570;9.984;2023-02-26T08:04:02;102064.47;;;11.90;100.00
65190;BME280;51777;53.570;9.984;2023-02-26T08:06:28;102064.84;;;12.29;100.00
65190;BME280;51777;53.570;9.984;2023-02-26T08:08:53;102069.81;;;11.33;100.00
65190;BME280;51777;53.570;9.984;2023-02-26T08:11:19;102070.47;;;11.01;100.00
65190;BME280;51777;53.570;9.984;2023-02-26T08:13:45;102077.81;;;11.07;100.00
65190;BME280;51777;53.570;9.984;2023-02-26T08:16:11;102085.09;;;11.69;100.00
65190;BME280;51777;53.570;9.984;2023-02-26T08:18:36;102077.63;;;10.04;100.00
65190;BME280;51777;53.570;9.984;2023-02-26T08:21:02;102082.25;;;12.06;100.00
65190;BME280;51777;53.570;9.984;2023-02-26T08:23:27;102089.72;;;13.86;100.00
65190;BME280;51777;53.570;9.984;2023-02-26T08:26:08;102106.03;;;17.02;97.28
65190;BME280;51777;53.570;9.984;2023-02-26T08:28:33;102127.97;;;19.49;95.17
65190;BME280;51777;53.570;9.984;2023-02-26T08:31:00;102139.50;;;20.56;92.13
65190;BME280;51777;53.570;9.984;2023-02-26T08:33:26;102143.41;;;22.22;93.83
65190;BME280;51777;53.570;9.984;2023-02-26T08:35:51;102155.09;;;23.18;92.17
65190;BME280;51777;53.570;9.984;2023-02-26T08:38:18;102166.97;;;24.38;91.49
65190;BME280;51777;53.570;9.984;2023-02-26T08:40:43;102173.19;;;25.36;90.42
65190;BME280;51777;53.570;9.984;2023-02-26T08:43:09;102178.16;;;25.77;90.49
65190;BME280;51777;53.570;9.984;2023-02-26T08:45:36;102174.06;;;23.28;89.86
65190;BME280;51777;53.570;9.984;2023-02-26T08:48:02;102185.22;;;24.26;91.00
65190;BME280;51777;53.570;9.984;2023-02-26T08:50:27;102189.34;;;25.21;89.41
65190;BME280;51777;53.570;9.984;2023-02-26T08:52:52;102203.41;;;25.80;89.89
65190;BME280;51777;53.570;9.984;2023-02-26T08:55:18;102197.69;;;26.77;89.32
65190;BME280;51777;53.570;9.984;2023-02-26T08:57:43;102214.56;;;27.33;87.74
65190;BME280;51777;53.570;9.984;2023-02-26T09:00:09;102214.47;;;27.76;87.05
65190;BME280;51777;53.570;9.984;2023-02-26T09:02:37;102208.88;;;27.84;86.86
65190;BME280;51777;53.570;9.984;2023-02-26T09:05:04;102223.91;;;27.90;87.08
65190;BME280;51777;53.570;9.984;2023-02-26T09:07:30;102216.56;;;27.37;87.51
65190;BME280;51777;53.570;9.984;2023-02-26T09:09:55;102215.41;;;24.98;86.68
65190;BME280;51777;53.570;9.984;2023-02-26T09:12:21;102213.53;;;23.78;86.52
65190;BME280;51777;53.570;9.984;2023-02-26T09:14:47;102202.94;;;22.38;89.70
65190;BME280;51777;53.570;9.984;2023-02-26T09:17:12;102207.22;;;20.22;90.14
65190;BME280;51777;53.570;9.984;2023-02-26T09:19:37;102204.09;;;20.73;89.38
65190;BME280;51777;53.570;9.984;2023-02-26T09:22:03;102204.31;;;18.15;90.60
65190;BME280;51777;53.570;9.984;2023-02-26T09:24:29;102194.88;;;18.47;90.99
65190;BME280;51777;53.570;9.984;2023-02-26T09:26:55;102190.63;;;17.53;93.50
65190;BME280;51777;53.570;9.984;2023-02-26T09:29:21;102193.16;;;17.37;93.97
65190;BME280;51777;53.570;9.984;2023-02-26T09:31:46;102190.91;;;15.72;93.39
65190;BME280;51777;53.570;9.984;2023-02-26T09:34:11;102200.63;;;17.32;94.62
65190;BME280;51777;53.570;9.984;2023-02-26T09:36:38;102199.25;;;16.76;93.71
65190;BME280;51777;53.570;9.984;2023-02-26T09:39:04;102203.81;;;16.47;95.99
65190;BME280;51777;53.570;9.984;2023-02-26T09:41:34;102196.34;;;15.32;95.43
65190;BME280;51777;53.570;9.984;2023-02-26T09:44:19;102195.16;;;15.07;95.23
65190;BME280;51777;53.570;9.984;2023-02-26T09:49:47;102205.56;;;14.88;94.57
65190;BME280;51777;53.570;9.984;2023-02-26T09:52:23;102195.97;;;12.65;96.46
65190;BME280;51777;53.570;9.984;2023-02-26T09:54:52;102204.81;;;14.28;94.84
65190;BME280;51777;53.570;9.984;2023-02-26T09:57:32;102212.66;;;15.91;93.28
65190;BME280;51777;53.570;9.984;2023-02-26T09:59:58;102209.50;;;16.42;92.70
65190;BME280;51777;53.570;9.984;2023-02-26T10:02:37;102218.34;;;17.46;91.42
65190;BME280;51777;53.570;9.984;2023-02-26T10:05:21;102229.50;;;18.91;89.85
65190;BME280;51777;53.570;9.984;2023-02-26T10:08:01;102221.81;;;16.22;92.54
65190;BME280;51777;53.570;9.984;2023-02-26T10:12:59;102216.31;;;13.55;97.21
65190;BME280;51777;53.570;9.984;2023-02-26T10:15:36;102217.41;;;13.31;97.20
65190;BME280;51777;53.570;9.984;2023-02-26T10:18:08;102216.34;;;12.70;98.53
65190;BME280;51777;53.570;9.984;2023-02-26T10:20:58;102209.28;;;10.43;100.00
65190;BME280;51777;53.570;9.984;2023-02-26T10:26:17;102213.03;;;9.25;100.00
65190;BME280;51777;53.570;9.984;2023-02-26T10:34:44;102222.16;;;9.56;100.00
65190;BME280;51777;53.570;9.984;2023-02-26T10:40:09;102226.56;;;7.76;100.00
65190;BME280;51777;53.570;9.984;2023-02-26T10:42:41;102220.88;;;7.71;100.00
65190;BME280;51777;53.570;9.984;2023-02-26T10:45:27;102222.59;;;7.56;100.00
65190;BME280;51777;53.570;9.984;2023-02-26T10:48:16;102227.09;;;7.53;100.00
65190;BME280;51777;53.570;9.984;2023-02-26T10:50:51;102227.88;;;9.21;100.00
65190;BME280;51777;53.570;9.984;2023-02-26T10:53:17;102235.63;;;8.81;100.00
65190;BME280;51777;53.570;9.984;2023-02-26T10:55:47;102243.81;;;9.40;100.00
65190;BME280;51777;53.570;9.984;2023-02-26T10:58:18;102238.06;;;10.00;100.00
65190;BME280;51777;53.570;9.984;2023-02-26T11:00:47;102232.78;;;9.89;100.00
65190;BME280;51777;53.570;9.984;2023-02-26T11:03:25;102246.94;;;10.35;100.00
65190;BME280;51777;53.570;9.984;2023-02-26T11:05:53;102252.50;;;11.37;100.00
65190;BME280;51777;53.570;9.984;2023-02-26T11:08:38;102260.78;;;10.21;100.00
65190;BME280;51777;53.570;9.984;2023-02-26T11:11:05;102255.03;;;9.27;100.00
65190;BME280;51777;53.570;9.984;2023-02-26T11:13:33;102256.56;;;9.17;100.00
65190;BME280;51777;53.570;9.984;2023-02-26T11:16:05;102254.19;;;8.87;100.00
65190;BME280;51777;53.570;9.984;2023-02-26T11:18:53;102251.50;;;7.90;100.00
65190;BME280;51777;53.570;9.984;2023-02-26T11:21:26;102257.59;;;9.14;100.00
65190;BME280;51777;53.570;9.984;2023-02-26T11:24:02;102255.81;;;9.54;100.00
65190;BME280;51777;53.570;9.984;2023-02-26T11:26:36;102258.41;;;8.61;100.00
65190;BME280;51777;53.570;9.984;2023-02-26T11:29:03;102259.53;;;9.10;100.00
65190;BME280;51777;53.570;9.984;2023-02-26T11:31:31;102266.47;;;9.10;100.00
65190;BME280;51777;53.570;9.984;2023-02-26T11:34:02;102265.06;;;9.19;100.00
65190;BME280;51777;53.570;9.984;2023-02-26T11:36:31;102256.69;;;8.47;100.00
65190;BME280;51777;53.570;9.984;2023-02-26T11:39:04;102263.47;;;8.62;100.00
65190;BME280;51777;53.570;9.984;2023-02-26T11:41:35;102260.91;;;8.48;100.00
65190;BME280;51777;53.570;9.984;2023-02-26T11:44:05;102262.72;;;8.17;100.00
65190;BME280;51777;53.570;9.984;2023-02-26T11:46:43;102250.75;;;7.74;100.00
65190;BME280;51777;53.570;9.984;2023-02-26T11:49:15;102264.88;;;7.97;100.00
65190;BME280;51777;53.570;9.984;2023-02-26T11:51:45;102262.34;;;7.81;100.00
65190;BME280;51777;53.570;9.984;2023-02-26T11:54:23;102257.66;;;7.13;100.00
65190;BME280;51777;53.570;9.984;2023-02-26T11:56:49;102261.72;;;7.17;100.00
65190;BME280;51777;53.570;9.984;2023-02-26T11:59:20;102252.41;;;7.30;100.00
65190;BME280;51777;53.570;9.984;2023-02-26T12:01:47;102259.25;;;7.16;100.00
65190;BME280;51777;53.570;9.984;2023-02-26T12:04:15;102267.25;;;6.95;100.00
65190;BME280;51777;53.570;9.984;2023-02-26T12:06:43;102257.94;;;7.09;100.00
65190;BME280;51777;53.570;9.984;2023-02-26T12:09:13;102259.91;;;7.03;100.00
65190;BME280;51777;53.570;9.984;2023-02-26T12:20:17;102254.47;;;8.27;100.00
65190;BME280;51777;53.570;9.984;2023-02-26T12:22:59;102255.59;;;8.08;100.00
65190;BME280;51777;53.570;9.984;2023-02-26T12:31:21;102244.25;;;7.82;100.00
65190;BME280;51777;53.570;9.984;2023-02-26T12:36:42;102249.13;;;8.01;100.00
65190;BME280;51777;53.570;9.984;2023-02-26T12:50:15;102246.94;;;7.51;100.00
65190;BME280;51777;53.570;9.984;2023-02-26T12:52:47;102239.78;;;7.56;100.00
65190;BME280;51777;53.570;9.984;2023-02-26T12:55:56;102244.16;;;7.70;100.00
65190;BME280;51777;53.570;9.984;2023-02-26T12:58:48;102240.00;;;7.23;100.00
65190;BME280;51777;53.570;9.984;2023-02-26T13:10:13;102241.38;;;6.67;100.00
65190;BME280;51777;53.570;9.984;2023-02-26T13:17:34;102231.41;;;7.08;100.00
65190;BME280;51777;53.570;9.984;2023-02-26T13:20:10;102235.66;;;7.23;100.00
65190;BME280;51777;53.570;9.984;2023-02-26T13:22:47;102251.66;;;7.28;100.00
65190;BME280;51777;53.570;9.984;2023-02-26T13:25:19;102247.88;;;7.04;100.00
65190;BME280;51777;53.570;9.984;2023-02-26T13:27:46;102239.53;;;7.00;100.00
65190;BME280;51777;53.570;9.984;2023-02-26T13:30:24;102248.63;;;7.06;100.00
65190;BME280;51777;53.570;9.984;2023-02-26T13:32:54;102245.16;;;6.91;100.00
65190;BME280;51777;53.570;9.984;2023-02-26T13:35:21;102245.16;;;6.91;100.00
65190;BME280;51777;53.570;9.984;2023-02-26T13:37:55;102245.94;;;6.62;100.00
65190;BME280;51777;53.570;9.984;2023-02-26T13:43:39;102246.50;;;6.67;100.00
65190;BME280;51777;53.570;9.984;2023-02-26T13:46:40;102242.28;;;6.50;100.00
65190;BME280;51777;53.570;9.984;2023-02-26T13:49:24;102241.69;;;6.92;100.00
65190;BME280;51777;53.570;9.984;2023-02-26T13:51:53;102243.59;;;6.89;100.00
65190;BME280;51777;53.570;9.984;2023-02-26T13:57:04;102239.94;;;6.30;100.00
65190;BME280;51777;53.570;9.984;2023-02-26T13:59:44;102241.28;;;6.37;100.00
65190;BME280;51777;53.570;9.984;2023-02-26T14:04:53;102239.88;;;6.63;100.00
65190;BME280;51777;53.570;9.984;2023-02-26T14:07:48;102243.13;;;6.35;100.00
65190;BME280;51777;53.570;9.984;2023-02-26T14:13:23;102235.81;;;6.90;100.00
65190;BME280;51777;53.570;9.984;2023-02-26T14:16:10;102237.91;;;6.84;100.00
65190;BME280;51777;53.570;9.984;2023-02-26T14:18:48;102244.84;;;6.82;100.00
65190;BME280;51777;53.570;9.984;2023-02-26T14:23:49;102243.94;;;6.67;100.00
65190;BME280;51777;53.570;9.984;2023-02-26T14:26:17;102247.25;;;6.53;100.00
65190;BME280;51777;53.570;9.984;2023-02-26T14:28:55;102245.34;;;6.41;100.00
65190;BME280;51777;53.570;9.984;2023-02-26T14:31:22;102247.25;;;6.37;100.00
65190;BME280;51777;53.570;9.984;2023-02-26T14:34:13;102248.44;;;6.47;100.00
65190;BME280;51777;53.570;9.984;2023-02-26T14:36:50;102245.34;;;6.41;100.00
65190;BME280;51777;53.570;9.984;2023-02-26T14:39:22;102250.75;;;6.19;100.00
65190;BME280;51777;53.570;9.984;2023-02-26T14:41:57;102251.22;;;6.27;100.00
65190;BME280;51777;53.570;9.984;2023-02-26T14:44:27;102248.78;;;6.08;100.00
65190;BME280;51777;53.570;9.984;2023-02-26T14:46:54;102243.66;;;6.24;100.00
65190;BME280;51777;53.570;9.984;2023-02-26T14:49:29;102246.69;;;6.48;100.00
65190;BME280;51777;53.570;9.984;2023-02-26T14:52:29;102243.94;;;6.67;100.00
65190;BME280;51777;53.570;9.984;2023-02-26T15:12:08;102254.44;;;5.80;100.00
65190;BME280;51777;53.570;9.984;2023-02-26T15:20:20;102260.44;;;5.46;100.00
65190;BME280;51777;53.570;9.984;2023-02-26T15:23:18;102264.94;;;5.41;100.00